createdAt,value
2023-03-31T00:03:22.352Z,14.36
2023-03-31T00:08:29.890Z,14.07
2023-03-31T00:13:33.029Z,14.29
2023-03-31T00:18:36.197Z,14.30
2023-03-31T00:23:38.758Z,14.21
2023-03-31T00:28:41.255Z,14.33
2023-03-31T00:33:43.767Z,14.38
2023-03-31T00:38:48.055Z,14.46
2023-03-31T00:44:14.365Z,14.28
2023-03-31T00:49:31.786Z,14.13
2023-03-31T00:54:36.610Z,14.04
2023-03-31T00:59:44.108Z,13.90
2023-03-31T01:04:54.654Z,13.83
2023-03-31T01:10:00.269Z,14.00
2023-03-31T01:15:04.592Z,14.06
2023-03-31T01:20:13.911Z,14.15
2023-03-31T01:26:14.813Z,14.27
2023-03-31T01:31:35.933Z,14.27
2023-03-31T01:37:01.436Z,14.36
2023-03-31T01:42:14.920Z,14.14
2023-03-31T01:47:32.915Z,14.03
2023-03-31T01:52:53.103Z,13.91
2023-03-31T01:58:09.607Z,13.98
2023-03-31T02:03:21.881Z,14.24
2023-03-31T02:08:29.735Z,14.28
2023-03-31T02:13:34.546Z,14.20
2023-03-31T02:18:38.749Z,14.15
2023-03-31T02:23:42.552Z,14.14
2023-03-31T02:28:45.265Z,14.27
2023-03-31T02:33:48.955Z,14.42
2023-03-31T02:39:19.885Z,14.34
2023-03-31T02:44:22.431Z,14.42
2023-03-31T02:49:25.238Z,14.51
2023-03-31T02:54:39.709Z,14.37
2023-03-31T03:00:01.191Z,14.50
2023-03-31T03:05:20.066Z,14.47
2023-03-31T03:10:40.580Z,14.27
2023-03-31T03:15:49.810Z,14.07
2023-03-31T03:20:52.723Z,14.23
2023-03-31T03:25:55.742Z,14.16
2023-03-31T03:30:58.399Z,14.07
2023-03-31T03:36:01.284Z,14.08
2023-03-31T03:41:04.313Z,14.04
2023-03-31T03:46:07.064Z,14.07
2023-03-31T03:51:09.704Z,14.14
2023-03-31T03:56:12.365Z,14.18
2023-03-31T04:01:14.887Z,14.16
2023-03-31T04:06:17.706Z,14.09
2023-03-31T04:11:20.332Z,14.10
2023-03-31T04:16:25.895Z,14.05
2023-03-31T04:21:30.676Z,14.13
2023-03-31T04:26:44.007Z,14.13
2023-03-31T04:31:46.653Z,14.17
2023-03-31T04:36:49.216Z,14.05
2023-03-31T04:41:51.989Z,14.02
2023-03-31T04:46:55.081Z,14.04
2023-03-31T04:51:57.557Z,14.11
2023-03-31T04:57:00.230Z,14.18
2023-03-31T05:02:02.823Z,13.96
2023-03-31T05:07:05.433Z,13.72
2023-03-31T05:12:08.083Z,13.82
2023-03-31T05:17:11.275Z,13.93
2023-03-31T05:22:13.787Z,13.96
2023-03-31T05:27:16.978Z,14.10
2023-03-31T05:32:19.477Z,14.08
2023-03-31T05:37:21.931Z,14.20
2023-03-31T05:42:24.708Z,14.41
2023-03-31T05:47:27.476Z,14.46
2023-03-31T05:52:30.157Z,14.54
2023-03-31T05:57:32.756Z,14.52
2023-03-31T06:02:35.690Z,14.51
2023-03-31T06:07:38.522Z,14.40
2023-03-31T06:12:41.132Z,14.52
2023-03-31T06:17:43.717Z,14.51
2023-03-31T06:22:46.247Z,14.58
2023-03-31T06:27:48.774Z,14.55
2023-03-31T06:32:51.301Z,14.56
2023-03-31T06:37:53.806Z,14.50
2023-03-31T06:42:56.407Z,14.41
2023-03-31T06:47:59.022Z,14.35
2023-03-31T06:53:01.685Z,14.27
2023-03-31T06:58:05.367Z,14.39
2023-03-31T07:03:09.143Z,14.87
2023-03-31T07:08:11.790Z,14.97
2023-03-31T07:13:16.248Z,15.11
2023-03-31T07:18:19.243Z,14.83
2023-03-31T07:23:21.798Z,14.62
2023-03-31T07:28:24.350Z,14.64
2023-03-31T07:33:26.990Z,14.73
2023-03-31T07:38:29.530Z,14.98
2023-03-31T07:43:32.078Z,15.29
2023-03-31T07:48:34.788Z,15.46
2023-03-31T07:53:37.333Z,15.45
2023-03-31T07:58:39.927Z,15.45
2023-03-31T08:03:43.652Z,15.47
2023-03-31T08:08:46.215Z,15.62
2023-03-31T08:13:49.104Z,15.96
2023-03-31T08:18:51.635Z,16.29
2023-03-31T08:23:55.405Z,16.51
2023-03-31T08:28:59.020Z,16.72
2023-03-31T08:34:02.818Z,16.31
2023-03-31T08:39:07.441Z,16.25
2023-03-31T08:44:35.594Z,16.34
2023-03-31T08:49:45.522Z,16.52
2023-03-31T08:54:53.238Z,16.55
2023-03-31T08:59:58.710Z,16.64
2023-03-31T09:05:26.658Z,16.43
2023-03-31T09:10:56.647Z,16.27
2023-03-31T09:16:16.657Z,16.23
2023-03-31T09:21:33.025Z,16.46
2023-03-31T09:26:42.220Z,16.43
2023-03-31T09:31:46.618Z,16.48
2023-03-31T09:36:49.177Z,16.46
2023-03-31T09:41:54.124Z,16.49
2023-03-31T09:47:00.028Z,16.47
2023-03-31T09:52:29.389Z,16.54
2023-03-31T09:57:36.329Z,16.45
2023-03-31T10:02:45.587Z,16.58
2023-03-31T10:07:48.512Z,16.51
2023-03-31T10:12:52.669Z,16.55
2023-03-31T10:17:58.436Z,16.67
2023-03-31T10:23:15.735Z,16.89
2023-03-31T10:28:21.127Z,16.65
2023-03-31T10:33:27.285Z,16.60
2023-03-31T10:38:34.868Z,16.34
2023-03-31T10:43:42.958Z,16.61
2023-03-31T10:48:46.460Z,16.48
2023-03-31T10:53:52.007Z,16.33
2023-03-31T10:59:19.238Z,16.36
2023-03-31T11:04:36.783Z,16.52
2023-03-31T11:10:03.503Z,16.57
2023-03-31T11:15:26.950Z,16.67
2023-03-31T11:20:56.610Z,16.70
2023-03-31T11:26:13.387Z,17.39
2023-03-31T11:31:33.201Z,16.66
2023-03-31T11:36:49.536Z,16.57
2023-03-31T11:41:57.370Z,16.84
2023-03-31T11:47:06.465Z,15.54
2023-03-31T11:52:19.165Z,15.54
2023-03-31T11:57:33.389Z,17.21
2023-03-31T12:02:55.106Z,17.11
2023-03-31T12:08:07.791Z,16.90
2023-03-31T12:13:32.024Z,17.52
2023-03-31T12:18:42.526Z,16.22
2023-03-31T12:23:45.680Z,16.42
2023-03-31T12:28:51.927Z,17.39
2023-03-31T12:34:00.720Z,17.06
2023-03-31T12:39:33.911Z,15.71
2023-03-31T12:44:50.989Z,16.01
2023-03-31T12:50:27.410Z,17.75
2023-03-31T12:55:37.902Z,17.67
2023-03-31T13:01:19.859Z,16.87
2023-03-31T13:06:25.497Z,18.17
2023-03-31T13:11:37.377Z,18.04
2023-03-31T13:16:40.755Z,18.16
2023-03-31T13:21:54.488Z,18.18
2023-03-31T13:26:59.592Z,18.48
2023-03-31T13:32:02.134Z,18.00
2023-03-31T13:37:23.299Z,18.67
2023-03-31T13:42:28.959Z,18.02
2023-03-31T13:47:50.106Z,17.68
2023-03-31T13:53:04.481Z,18.86
2023-03-31T13:58:37.024Z,18.17
2023-03-31T14:04:12.709Z,17.44
2023-03-31T14:09:26.930Z,17.93
2023-03-31T14:14:29.885Z,17.70
2023-03-31T14:19:50.831Z,17.08
2023-03-31T14:24:56.222Z,16.69
2023-03-31T14:30:17.803Z,17.42
2023-03-31T14:35:33.841Z,18.42
2023-03-31T14:40:46.930Z,17.59
2023-03-31T14:45:58.790Z,16.97
2023-03-31T14:51:03.616Z,16.41
2023-03-31T14:56:09.525Z,16.05
2023-03-31T15:01:17.290Z,15.73
2023-03-31T15:06:20.043Z,16.27
2023-03-31T15:11:23.164Z,18.14
2023-03-31T15:16:43.509Z,18.47
2023-03-31T15:21:53.341Z,18.72
2023-03-31T15:26:58.813Z,19.71
2023-03-31T15:32:01.694Z,19.07
2023-03-31T15:37:07.738Z,18.03
2023-03-31T15:42:10.945Z,17.12
2023-03-31T15:47:18.942Z,16.72
2023-03-31T15:52:33.170Z,16.14
2023-03-31T15:57:36.118Z,15.36
2023-03-31T16:02:46.865Z,14.58
2023-03-31T16:07:49.663Z,14.77
2023-03-31T16:13:03.300Z,16.49
2023-03-31T16:18:17.385Z,17.31
2023-03-31T16:23:24.606Z,16.53
2023-03-31T16:28:31.627Z,15.27
2023-03-31T16:33:55.662Z,15.24
2023-03-31T16:39:01.902Z,16.79
2023-03-31T16:44:06.278Z,17.10
2023-03-31T16:49:08.813Z,15.53
2023-03-31T16:54:11.650Z,15.18
2023-03-31T16:59:14.396Z,16.53
2023-03-31T17:04:16.972Z,17.05
2023-03-31T17:09:19.470Z,15.88
2023-03-31T17:14:22.076Z,14.62
2023-03-31T17:19:27.055Z,14.58
2023-03-31T17:24:29.820Z,16.41
2023-03-31T17:29:32.341Z,16.22
2023-03-31T17:34:34.823Z,14.50
2023-03-31T17:39:37.342Z,14.09
2023-03-31T17:44:40.661Z,15.40
2023-03-31T17:49:43.511Z,16.09
2023-03-31T17:54:47.422Z,15.30
2023-03-31T17:59:51.328Z,13.68
2023-03-31T18:04:54.703Z,13.34
2023-03-31T18:09:57.465Z,14.40
2023-03-31T18:15:00.166Z,15.12
2023-03-31T18:20:02.871Z,15.65
2023-03-31T18:25:05.954Z,14.61
2023-03-31T18:30:09.001Z,13.23
2023-03-31T18:35:11.665Z,13.12
2023-03-31T18:40:14.953Z,14.37
2023-03-31T18:45:17.914Z,15.07
2023-03-31T18:50:23.137Z,15.36
2023-03-31T18:55:25.929Z,14.04
2023-03-31T19:00:28.696Z,12.94
2023-03-31T19:05:31.697Z,14.03
2023-03-31T19:10:34.367Z,14.39
2023-03-31T19:15:37.387Z,14.67
2023-03-31T19:20:40.139Z,14.09
2023-03-31T19:25:42.813Z,13.29
2023-03-31T19:30:47.861Z,14.05
2023-03-31T19:35:51.069Z,14.58
2023-03-31T19:40:53.741Z,14.86
2023-03-31T19:45:57.491Z,15.12
2023-03-31T19:51:04.029Z,15.16
2023-03-31T19:56:10.085Z,15.22
2023-03-31T20:01:17.739Z,13.74
2023-03-31T20:06:23.308Z,12.68
2023-03-31T20:11:27.528Z,13.73
2023-03-31T20:16:31.173Z,14.34
2023-03-31T20:21:36.890Z,14.59
2023-03-31T20:26:39.446Z,14.84
2023-03-31T20:31:42.356Z,14.89
2023-03-31T20:36:48.858Z,14.99
2023-03-31T20:41:51.872Z,14.92
2023-03-31T20:46:55.912Z,14.86
2023-03-31T20:51:58.980Z,14.88
2023-03-31T20:57:05.473Z,15.00
2023-03-31T21:02:11.672Z,15.07
2023-03-31T21:07:14.278Z,15.14
2023-03-31T21:12:16.753Z,15.01
2023-03-31T21:17:19.287Z,14.79
2023-03-31T21:22:21.783Z,14.78
2023-03-31T21:27:24.314Z,14.78
2023-03-31T21:32:29.595Z,14.69
2023-03-31T21:37:32.141Z,14.75
2023-03-31T21:42:34.966Z,14.81
2023-03-31T21:47:38.401Z,14.95
2023-03-31T21:52:40.963Z,15.12
2023-03-31T21:57:43.872Z,15.18
2023-03-31T22:02:46.425Z,15.19
2023-03-31T22:07:49.001Z,13.70
2023-03-31T22:12:52.005Z,13.07
2023-03-31T22:17:54.618Z,14.14
2023-03-31T22:22:57.666Z,14.52
2023-03-31T22:28:00.681Z,14.47
2023-03-31T22:33:03.226Z,14.32
2023-03-31T22:38:06.556Z,14.39
2023-03-31T22:43:09.813Z,14.68
2023-03-31T22:48:13.844Z,14.70
2023-03-31T22:53:16.738Z,14.71
2023-03-31T22:58:19.317Z,14.97
2023-03-31T23:03:21.840Z,15.25
2023-03-31T23:08:24.403Z,14.00
2023-03-31T23:13:28.560Z,12.44
2023-03-31T23:18:31.115Z,13.02
2023-03-31T23:23:33.777Z,13.98
2023-03-31T23:28:37.140Z,14.46
2023-03-31T23:33:39.692Z,14.78
2023-03-31T23:38:45.468Z,15.02
2023-03-31T23:43:48.351Z,15.24
2023-03-31T23:48:51.452Z,14.76
2023-03-31T23:53:54.011Z,13.12
2023-03-31T23:58:56.534Z,12.85
